KMLP

Mullan Pass Vor Airport

Mullan Pass, Idaho, USA
METAR KMLP 201953Z AUTO VRB03KT 4SM HZ FEW033 BKN045 OVC065 13/04 A3022 RMK AO2 LTG DSNT NW SLP147 T01280039
Observed Flight Rules
Aug-20 @ 19:53 UTC (37 minutes ago) Marginal Visual Flight Rules
Wind Visibility Clouds Conditions
Variable at 3 knots 4 miles
  • Few at 3,300' AGL
  • Broken at 4,500' AGL
  • Overcast at 6,500' AGL
  • Haze
Temperatures Readings
Current 13°C / 55°F
Dewpoint 4°C / 39°F
Humidity 55%
Altimeter 30.22" Hg
Pressure 1014.7 hPa
Elevation 1837
METAR KMLP 201953Z AUTO VRB03KT 4SM HZ FEW033 BKN045 OVC065 13/04 A3022 RMK AO2 LTG DSNT NW SLP147 T01280039
Observed Flight Rules
Aug-20 @ 19:53 UTC
(37 minutes ago)
MVFR
Wind Visibility
Variable at 3 knots 4 miles
Clouds
  • Few at 3,300' AGL
  • Broken at 4,500' AGL
  • Overcast at 6,500' AGL
Conditions
  • Haze
Temperature Dewpoint
13°C / 55°F 4°C / 39°F
Humidity Altimeter Pressure
55% 30.22" Hg 1014.7 hPa